sensor_id;sensor_type;location;lat;lon;timestamp;P1;durP1;ratioP1;P2;durP2;ratioP2
39956;SDS011;48483;44.640;7.494;2022-08-04T00:02:35;6.13;;;4.35;;
39956;SDS011;48483;44.640;7.494;2022-08-04T00:05:22;4.50;;;4.10;;
39956;SDS011;48483;44.640;7.494;2022-08-04T00:07:57;5.72;;;4.32;;
39956;SDS011;48483;44.640;7.494;2022-08-04T00:10:33;6.13;;;4.82;;
39956;SDS011;48483;44.640;7.494;2022-08-04T00:13:01;4.55;;;4.15;;
39956;SDS011;48483;44.640;7.494;2022-08-04T00:15:30;7.13;;;4.57;;
39956;SDS011;48483;44.640;7.494;2022-08-04T00:17:59;4.93;;;4.20;;
39956;SDS011;48483;44.640;7.494;2022-08-04T00:20:28;4.85;;;4.45;;
39956;SDS011;48483;44.640;7.494;2022-08-04T00:22:57;4.80;;;4.30;;
39956;SDS011;48483;44.640;7.494;2022-08-04T00:25:25;5.43;;;4.50;;
39956;SDS011;48483;44.640;7.494;2022-08-04T00:27:53;4.55;;;4.15;;
39956;SDS011;48483;44.640;7.494;2022-08-04T00:30:20;4.85;;;4.43;;
39956;SDS011;48483;44.640;7.494;2022-08-04T00:32:47;4.28;;;3.88;;
39956;SDS011;48483;44.640;7.494;2022-08-04T00:35:15;4.68;;;4.28;;
39956;SDS011;48483;44.640;7.494;2022-08-04T00:37:42;4.82;;;4.25;;
39956;SDS011;48483;44.640;7.494;2022-08-04T00:40:12;5.65;;;4.32;;
39956;SDS011;48483;44.640;7.494;2022-08-04T00:42:48;5.82;;;4.35;;
39956;SDS011;48483;44.640;7.494;2022-08-04T00:45:29;8.55;;;4.60;;
39956;SDS011;48483;44.640;7.494;2022-08-04T00:48:34;5.03;;;4.63;;
39956;SDS011;48483;44.640;7.494;2022-08-04T00:51:13;6.90;;;4.63;;
39956;SDS011;48483;44.640;7.494;2022-08-04T00:53:51;6.05;;;4.70;;
39956;SDS011;48483;44.640;7.494;2022-08-04T00:59:25;5.00;;;4.30;;
39956;SDS011;48483;44.640;7.494;2022-08-04T01:02:06;5.32;;;3.95;;
39956;SDS011;48483;44.640;7.494;2022-08-04T01:04:44;7.55;;;4.50;;
39956;SDS011;48483;44.640;7.494;2022-08-04T01:07:20;6.55;;;4.90;;
39956;SDS011;48483;44.640;7.494;2022-08-04T01:10:03;5.28;;;4.50;;
39956;SDS011;48483;44.640;7.494;2022-08-04T01:12:37;6.63;;;4.57;;
39956;SDS011;48483;44.640;7.494;2022-08-04T01:15:19;4.40;;;3.90;;
39956;SDS011;48483;44.640;7.494;2022-08-04T01:17:58;5.43;;;4.60;;
39956;SDS011;48483;44.640;7.494;2022-08-04T01:20:31;5.20;;;4.43;;
39956;SDS011;48483;44.640;7.494;2022-08-04T01:26:15;5.13;;;4.10;;
39956;SDS011;48483;44.640;7.494;2022-08-04T01:29:05;5.53;;;4.70;;
39956;SDS011;48483;44.640;7.494;2022-08-04T01:31:38;6.22;;;4.57;;
39956;SDS011;48483;44.640;7.494;2022-08-04T01:34:12;7.82;;;4.88;;
39956;SDS011;48483;44.640;7.494;2022-08-04T01:36:43;5.15;;;4.60;;
39956;SDS011;48483;44.640;7.494;2022-08-04T01:39:12;5.43;;;4.82;;
39956;SDS011;48483;44.640;7.494;2022-08-04T01:41:58;5.97;;;5.13;;
39956;SDS011;48483;44.640;7.494;2022-08-04T01:44:28;6.20;;;4.85;;
39956;SDS011;48483;44.640;7.494;2022-08-04T01:46:56;5.18;;;4.68;;
39956;SDS011;48483;44.640;7.494;2022-08-04T01:49:27;7.72;;;4.57;;
39956;SDS011;48483;44.640;7.494;2022-08-04T01:51:55;5.13;;;4.55;;
39956;SDS011;48483;44.640;7.494;2022-08-04T01:54:22;4.70;;;4.30;;
39956;SDS011;48483;44.640;7.494;2022-08-04T01:56:50;6.07;;;4.35;;
39956;SDS011;48483;44.640;7.494;2022-08-04T01:59:18;7.88;;;4.97;;
39956;SDS011;48483;44.640;7.494;2022-08-04T02:01:47;7.10;;;4.32;;
39956;SDS011;48483;44.640;7.494;2022-08-04T02:04:14;6.47;;;4.43;;
39956;SDS011;48483;44.640;7.494;2022-08-04T02:06:46;5.38;;;4.72;;
39956;SDS011;48483;44.640;7.494;2022-08-04T02:09:20;6.97;;;5.00;;
39956;SDS011;48483;44.640;7.494;2022-08-04T02:11:53;5.53;;;4.78;;
39956;SDS011;48483;44.640;7.494;2022-08-04T02:14:27;6.07;;;4.43;;
39956;SDS011;48483;44.640;7.494;2022-08-04T02:17:13;5.35;;;4.68;;
39956;SDS011;48483;44.640;7.494;2022-08-04T02:19:47;5.68;;;5.03;;
39956;SDS011;48483;44.640;7.494;2022-08-04T02:22:26;5.63;;;5.13;;
39956;SDS011;48483;44.640;7.494;2022-08-04T02:24:56;6.40;;;4.90;;
39956;SDS011;48483;44.640;7.494;2022-08-04T02:27:28;5.95;;;5.05;;
39956;SDS011;48483;44.640;7.494;2022-08-04T02:29:58;5.05;;;4.50;;
39956;SDS011;48483;44.640;7.494;2022-08-04T02:32:29;6.38;;;5.18;;
39956;SDS011;48483;44.640;7.494;2022-08-04T02:35:06;5.60;;;5.05;;
39956;SDS011;48483;44.640;7.494;2022-08-04T02:37:36;5.18;;;4.68;;
39956;SDS011;48483;44.640;7.494;2022-08-04T02:40:03;5.97;;;4.07;;
39956;SDS011;48483;44.640;7.494;2022-08-04T02:42:31;7.00;;;4.75;;
39956;SDS011;48483;44.640;7.494;2022-08-04T02:44:59;5.50;;;4.60;;
39956;SDS011;48483;44.640;7.494;2022-08-04T02:47:27;6.50;;;4.95;;
39956;SDS011;48483;44.640;7.494;2022-08-04T02:49:55;6.68;;;4.70;;
39956;SDS011;48483;44.640;7.494;2022-08-04T02:52:23;6.68;;;4.65;;
39956;SDS011;48483;44.640;7.494;2022-08-04T02:54:52;5.18;;;4.25;;
39956;SDS011;48483;44.640;7.494;2022-08-04T02:57:20;4.90;;;4.40;;
39956;SDS011;48483;44.640;7.494;2022-08-04T02:59:55;5.32;;;4.55;;
39956;SDS011;48483;44.640;7.494;2022-08-04T03:02:37;6.75;;;4.70;;
39956;SDS011;48483;44.640;7.494;2022-08-04T03:05:16;8.45;;;5.75;;
39956;SDS011;48483;44.640;7.494;2022-08-04T03:07:56;6.20;;;4.93;;
39956;SDS011;48483;44.640;7.494;2022-08-04T03:13:59;5.68;;;4.88;;
39956;SDS011;48483;44.640;7.494;2022-08-04T03:16:51;5.53;;;4.97;;
39956;SDS011;48483;44.640;7.494;2022-08-04T03:19:47;6.25;;;4.63;;
39956;SDS011;48483;44.640;7.494;2022-08-04T03:26:12;5.43;;;4.35;;
39956;SDS011;48483;44.640;7.494;2022-08-04T03:32:08;6.65;;;4.60;;
39956;SDS011;48483;44.640;7.494;2022-08-04T03:35:02;7.53;;;5.25;;
39956;SDS011;48483;44.640;7.494;2022-08-04T03:37:51;7.55;;;4.57;;
39956;SDS011;48483;44.640;7.494;2022-08-04T03:46:46;6.55;;;5.07;;
39956;SDS011;48483;44.640;7.494;2022-08-04T03:49:31;6.35;;;3.97;;
39956;SDS011;48483;44.640;7.494;2022-08-04T03:52:29;5.93;;;4.32;;
39956;SDS011;48483;44.640;7.494;2022-08-04T03:55:39;6.18;;;5.00;;
39956;SDS011;48483;44.640;7.494;2022-08-04T04:01:51;5.53;;;4.35;;
39956;SDS011;48483;44.640;7.494;2022-08-04T04:10:40;9.68;;;4.85;;
39956;SDS011;48483;44.640;7.494;2022-08-04T04:16:36;6.57;;;5.15;;
39956;SDS011;48483;44.640;7.494;2022-08-04T04:19:15;7.40;;;4.93;;
39956;SDS011;48483;44.640;7.494;2022-08-04T04:21:57;5.78;;;5.15;;
39956;SDS011;48483;44.640;7.494;2022-08-04T04:24:36;5.55;;;5.05;;
39956;SDS011;48483;44.640;7.494;2022-08-04T04:27:33;5.72;;;5.13;;
39956;SDS011;48483;44.640;7.494;2022-08-04T04:30:10;5.43;;;4.93;;
39956;SDS011;48483;44.640;7.494;2022-08-04T04:32:46;6.15;;;5.20;;
39956;SDS011;48483;44.640;7.494;2022-08-04T04:35:34;5.22;;;4.72;;
39956;SDS011;48483;44.640;7.494;2022-08-04T04:38:28;5.90;;;4.80;;
39956;SDS011;48483;44.640;7.494;2022-08-04T04:41:14;6.80;;;4.50;;
39956;SDS011;48483;44.640;7.494;2022-08-04T04:44:16;5.18;;;4.68;;
39956;SDS011;48483;44.640;7.494;2022-08-04T04:47:06;6.07;;;5.25;;
39956;SDS011;48483;44.640;7.494;2022-08-04T04:49:41;8.07;;;4.80;;
39956;SDS011;48483;44.640;7.494;2022-08-04T04:52:17;6.70;;;4.65;;
39956;SDS011;48483;44.640;7.494;2022-08-04T04:54:50;6.00;;;4.63;;
39956;SDS011;48483;44.640;7.494;2022-08-04T04:57:25;7.15;;;4.43;;
39956;SDS011;48483;44.640;7.494;2022-08-04T05:00:02;5.88;;;4.30;;
39956;SDS011;48483;44.640;7.494;2022-08-04T05:02:43;6.30;;;4.10;;
39956;SDS011;48483;44.640;7.494;2022-08-04T05:05:31;6.40;;;3.75;;
39956;SDS011;48483;44.640;7.494;2022-08-04T05:11:09;4.93;;;4.13;;
39956;SDS011;48483;44.640;7.494;2022-08-04T05:13:51;4.78;;;4.28;;
39956;SDS011;48483;44.640;7.494;2022-08-04T05:16:23;4.82;;;4.32;;
39956;SDS011;48483;44.640;7.494;2022-08-04T05:18:56;5.53;;;4.53;;
39956;SDS011;48483;44.640;7.494;2022-08-04T05:21:36;6.55;;;4.47;;
39956;SDS011;48483;44.640;7.494;2022-08-04T05:24:09;5.05;;;4.15;;
39956;SDS011;48483;44.640;7.494;2022-08-04T05:26:40;7.40;;;4.80;;
39956;SDS011;48483;44.640;7.494;2022-08-04T05:29:12;5.68;;;5.07;;
39956;SDS011;48483;44.640;7.494;2022-08-04T05:31:48;7.45;;;6.68;;
39956;SDS011;48483;44.640;7.494;2022-08-04T05:34:19;5.10;;;4.60;;
39956;SDS011;48483;44.640;7.494;2022-08-04T05:36:50;6.10;;;4.47;;
39956;SDS011;48483;44.640;7.494;2022-08-04T05:39:21;6.47;;;4.75;;
39956;SDS011;48483;44.640;7.494;2022-08-04T05:41:50;5.85;;;4.53;;
39956;SDS011;48483;44.640;7.494;2022-08-04T05:44:19;5.18;;;4.57;;
39956;SDS011;48483;44.640;7.494;2022-08-04T05:46:49;5.10;;;4.25;;
39956;SDS011;48483;44.640;7.494;2022-08-04T05:49:17;8.15;;;4.97;;
39956;SDS011;48483;44.640;7.494;2022-08-04T05:51:45;9.02;;;5.28;;
39956;SDS011;48483;44.640;7.494;2022-08-04T05:54:13;6.50;;;4.90;;
39956;SDS011;48483;44.640;7.494;2022-08-04T05:56:41;5.10;;;4.60;;
39956;SDS011;48483;44.640;7.494;2022-08-04T05:59:09;8.80;;;4.80;;
39956;SDS011;48483;44.640;7.494;2022-08-04T06:01:38;6.10;;;4.18;;
39956;SDS011;48483;44.640;7.494;2022-08-04T06:04:06;6.63;;;4.75;;
39956;SDS011;48483;44.640;7.494;2022-08-04T06:06:34;5.80;;;4.07;;
39956;SDS011;48483;44.640;7.494;2022-08-04T06:09:02;4.35;;;3.95;;
39956;SDS011;48483;44.640;7.494;2022-08-04T06:11:29;4.93;;;4.07;;
39956;SDS011;48483;44.640;7.494;2022-08-04T06:13:57;6.50;;;4.53;;
39956;SDS011;48483;44.640;7.494;2022-08-04T06:16:39;6.60;;;5.03;;
39956;SDS011;48483;44.640;7.494;2022-08-04T06:19:10;5.70;;;5.00;;
39956;SDS011;48483;44.640;7.494;2022-08-04T06:24:08;6.22;;;4.78;;
39956;SDS011;48483;44.640;7.494;2022-08-04T06:26:37;6.00;;;4.68;;
39956;SDS011;48483;44.640;7.494;2022-08-04T06:29:05;5.63;;;4.20;;
39956;SDS011;48483;44.640;7.494;2022-08-04T06:31:45;5.85;;;4.60;;
39956;SDS011;48483;44.640;7.494;2022-08-04T06:34:23;7.97;;;4.43;;
39956;SDS011;48483;44.640;7.494;2022-08-04T06:36:52;5.75;;;4.10;;
39956;SDS011;48483;44.640;7.494;2022-08-04T06:39:20;5.55;;;3.90;;
39956;SDS011;48483;44.640;7.494;2022-08-04T06:41:49;4.85;;;4.28;;
39956;SDS011;48483;44.640;7.494;2022-08-04T06:44:17;5.00;;;4.00;;
39956;SDS011;48483;44.640;7.494;2022-08-04T06:46:46;4.57;;;4.15;;
39956;SDS011;48483;44.640;7.494;2022-08-04T06:49:13;5.55;;;4.38;;
39956;SDS011;48483;44.640;7.494;2022-08-04T06:51:42;4.65;;;4.18;;
39956;SDS011;48483;44.640;7.494;2022-08-04T06:54:10;5.22;;;4.15;;
39956;SDS011;48483;44.640;7.494;2022-08-04T06:56:37;5.80;;;3.85;;
39956;SDS011;48483;44.640;7.494;2022-08-04T06:59:05;5.20;;;4.70;;
39956;SDS011;48483;44.640;7.494;2022-08-04T07:01:32;5.90;;;4.13;;
39956;SDS011;48483;44.640;7.494;2022-08-04T07:04:04;4.95;;;3.92;;
39956;SDS011;48483;44.640;7.494;2022-08-04T07:06:31;7.07;;;3.75;;
39956;SDS011;48483;44.640;7.494;2022-08-04T07:08:58;6.10;;;4.30;;
39956;SDS011;48483;44.640;7.494;2022-08-04T07:11:25;4.63;;;3.75;;
39956;SDS011;48483;44.640;7.494;2022-08-04T07:13:53;5.32;;;3.97;;
39956;SDS011;48483;44.640;7.494;2022-08-04T07:16:20;4.45;;;3.83;;
39956;SDS011;48483;44.640;7.494;2022-08-04T07:18:48;5.28;;;3.90;;
39956;SDS011;48483;44.640;7.494;2022-08-04T07:21:19;4.70;;;4.00;;
39956;SDS011;48483;44.640;7.494;2022-08-04T07:23:47;5.57;;;4.55;;
39956;SDS011;48483;44.640;7.494;2022-08-04T07:26:14;8.65;;;3.70;;
39956;SDS011;48483;44.640;7.494;2022-08-04T07:28:42;5.60;;;3.92;;
39956;SDS011;48483;44.640;7.494;2022-08-04T07:31:09;6.10;;;3.47;;
39956;SDS011;48483;44.640;7.494;2022-08-04T07:33:38;5.43;;;3.70;;
39956;SDS011;48483;44.640;7.494;2022-08-04T07:36:07;5.15;;;4.63;;
39956;SDS011;48483;44.640;7.494;2022-08-04T07:38:35;7.85;;;3.42;;
39956;SDS011;48483;44.640;7.494;2022-08-04T07:41:02;5.63;;;3.70;;
39956;SDS011;48483;44.640;7.494;2022-08-04T07:43:30;4.65;;;3.28;;
39956;SDS011;48483;44.640;7.494;2022-08-04T07:45:57;3.40;;;3.00;;
39956;SDS011;48483;44.640;7.494;2022-08-04T07:48:24;6.68;;;3.92;;
39956;SDS011;48483;44.640;7.494;2022-08-04T07:50:51;5.47;;;3.60;;
39956;SDS011;48483;44.640;7.494;2022-08-04T07:53:18;5.00;;;3.20;;
39956;SDS011;48483;44.640;7.494;2022-08-04T07:55:48;5.15;;;3.30;;
39956;SDS011;48483;44.640;7.494;2022-08-04T07:58:15;4.95;;;3.42;;
39956;SDS011;48483;44.640;7.494;2022-08-04T08:00:42;5.63;;;3.85;;
39956;SDS011;48483;44.640;7.494;2022-08-04T08:03:10;5.90;;;3.70;;
39956;SDS011;48483;44.640;7.494;2022-08-04T08:05:38;6.50;;;4.38;;
39956;SDS011;48483;44.640;7.494;2022-08-04T08:08:05;4.78;;;3.63;;
39956;SDS011;48483;44.640;7.494;2022-08-04T08:10:32;4.95;;;3.17;;
39956;SDS011;48483;44.640;7.494;2022-08-04T08:13:00;7.65;;;4.10;;
39956;SDS011;48483;44.640;7.494;2022-08-04T08:15:27;4.88;;;3.70;;
39956;SDS011;48483;44.640;7.494;2022-08-04T08:17:54;5.50;;;3.72;;
39956;SDS011;48483;44.640;7.494;2022-08-04T08:20:21;5.38;;;3.50;;
39956;SDS011;48483;44.640;7.494;2022-08-04T08:22:48;6.53;;;3.38;;
39956;SDS011;48483;44.640;7.494;2022-08-04T08:25:14;6.90;;;3.92;;
39956;SDS011;48483;44.640;7.494;2022-08-04T08:27:41;5.93;;;3.55;;
39956;SDS011;48483;44.640;7.494;2022-08-04T08:30:10;6.35;;;3.15;;
39956;SDS011;48483;44.640;7.494;2022-08-04T08:32:37;4.93;;;3.50;;
39956;SDS011;48483;44.640;7.494;2022-08-04T08:35:04;4.00;;;3.60;;
39956;SDS011;48483;44.640;7.494;2022-08-04T08:37:33;5.65;;;3.55;;
39956;SDS011;48483;44.640;7.494;2022-08-04T08:40:09;5.82;;;3.33;;
39956;SDS011;48483;44.640;7.494;2022-08-04T08:42:54;5.05;;;3.17;;
39956;SDS011;48483;44.640;7.494;2022-08-04T08:45:54;5.90;;;3.55;;
39956;SDS011;48483;44.640;7.494;2022-08-04T08:48:41;8.52;;;3.60;;
39956;SDS011;48483;44.640;7.494;2022-08-04T08:51:26;6.88;;;4.10;;
39956;SDS011;48483;44.640;7.494;2022-08-04T08:57:01;5.18;;;3.90;;
39956;SDS011;48483;44.640;7.494;2022-08-04T08:59:47;6.70;;;3.83;;
39956;SDS011;48483;44.640;7.494;2022-08-04T09:02:43;4.95;;;3.70;;
39956;SDS011;48483;44.640;7.494;2022-08-04T09:08:36;6.15;;;3.80;;
39956;SDS011;48483;44.640;7.494;2022-08-04T09:11:19;3.40;;;2.92;;
39956;SDS011;48483;44.640;7.494;2022-08-04T09:13:51;6.00;;;3.30;;
39956;SDS011;48483;44.640;7.494;2022-08-04T09:16:23;5.60;;;3.65;;
39956;SDS011;48483;44.640;7.494;2022-08-04T09:19:03;8.30;;;3.83;;
39956;SDS011;48483;44.640;7.494;2022-08-04T09:21:36;6.55;;;3.53;;
39956;SDS011;48483;44.640;7.494;2022-08-04T09:24:07;5.47;;;3.17;;
39956;SDS011;48483;44.640;7.494;2022-08-04T09:26:39;5.80;;;3.25;;
39956;SDS011;48483;44.640;7.494;2022-08-04T09:29:13;4.95;;;3.25;;
39956;SDS011;48483;44.640;7.494;2022-08-04T09:31:45;5.75;;;3.13;;
39956;SDS011;48483;44.640;7.494;2022-08-04T09:34:25;6.25;;;3.33;;
39956;SDS011;48483;44.640;7.494;2022-08-04T09:37:01;7.30;;;2.97;;
39956;SDS011;48483;44.640;7.494;2022-08-04T09:39:40;4.88;;;3.20;;
39956;SDS011;48483;44.640;7.494;2022-08-04T09:42:17;4.47;;;3.08;;
39956;SDS011;48483;44.640;7.494;2022-08-04T09:44:57;5.63;;;3.45;;
39956;SDS011;48483;44.640;7.494;2022-08-04T09:47:31;4.22;;;3.10;;
39956;SDS011;48483;44.640;7.494;2022-08-04T09:50:15;6.88;;;3.55;;
39956;SDS011;48483;44.640;7.494;2022-08-04T09:52:54;8.73;;;3.10;;
39956;SDS011;48483;44.640;7.494;2022-08-04T09:55:30;7.22;;;3.30;;
39956;SDS011;48483;44.640;7.494;2022-08-04T09:58:07;4.57;;;3.03;;
39956;SDS011;48483;44.640;7.494;2022-08-04T10:00:44;8.13;;;4.35;;
39956;SDS011;48483;44.640;7.494;2022-08-04T10:03:14;4.85;;;3.35;;
39956;SDS011;48483;44.640;7.494;2022-08-04T10:05:48;4.93;;;3.78;;
39956;SDS011;48483;44.640;7.494;2022-08-04T10:08:28;4.07;;;3.50;;
39956;SDS011;48483;44.640;7.494;2022-08-04T10:11:11;5.80;;;3.13;;
39956;SDS011;48483;44.640;7.494;2022-08-04T10:13:47;8.27;;;5.47;;
39956;SDS011;48483;44.640;7.494;2022-08-04T10:19:13;21.30;;;19.17;;
39956;SDS011;48483;44.640;7.494;2022-08-04T10:24:32;11.55;;;10.43;;
39956;SDS011;48483;44.640;7.494;2022-08-04T10:27:09;9.82;;;6.63;;
39956;SDS011;48483;44.640;7.494;2022-08-04T10:29:42;6.80;;;5.28;;
39956;SDS011;48483;44.640;7.494;2022-08-04T10:32:11;9.30;;;6.32;;
39956;SDS011;48483;44.640;7.494;2022-08-04T10:34:43;7.78;;;5.80;;
39956;SDS011;48483;44.640;7.494;2022-08-04T10:37:27;5.68;;;4.75;;
39956;SDS011;48483;44.640;7.494;2022-08-04T10:39:58;7.50;;;4.78;;
39956;SDS011;48483;44.640;7.494;2022-08-04T10:42:52;7.35;;;4.18;;
39956;SDS011;48483;44.640;7.494;2022-08-04T10:45:26;5.20;;;4.13;;
39956;SDS011;48483;44.640;7.494;2022-08-04T10:48:01;8.10;;;3.70;;
39956;SDS011;48483;44.640;7.494;2022-08-04T10:50:33;5.47;;;3.78;;
39956;SDS011;48483;44.640;7.494;2022-08-04T10:53:06;7.75;;;3.60;;
39956;SDS011;48483;44.640;7.494;2022-08-04T10:55:40;5.65;;;4.00;;
39956;SDS011;48483;44.640;7.494;2022-08-04T10:58:13;6.13;;;3.70;;
39956;SDS011;48483;44.640;7.494;2022-08-04T11:00:44;4.95;;;3.42;;
39956;SDS011;48483;44.640;7.494;2022-08-04T11:03:12;7.13;;;3.42;;
39956;SDS011;48483;44.640;7.494;2022-08-04T11:05:47;5.65;;;3.63;;
39956;SDS011;48483;44.640;7.494;2022-08-04T11:08:19;6.20;;;3.50;;
39956;SDS011;48483;44.640;7.494;2022-08-04T11:10:50;3.83;;;3.53;;
39956;SDS011;48483;44.640;7.494;2022-08-04T11:13:23;6.82;;;3.92;;
39956;SDS011;48483;44.640;7.494;2022-08-04T11:15:54;12.85;;;4.57;;
39956;SDS011;48483;44.640;7.494;2022-08-04T11:18:23;6.32;;;3.05;;
39956;SDS011;48483;44.640;7.494;2022-08-04T11:20:58;4.72;;;3.38;;
39956;SDS011;48483;44.640;7.494;2022-08-04T11:23:33;6.13;;;3.45;;
39956;SDS011;48483;44.640;7.494;2022-08-04T11:26:06;4.60;;;3.83;;
39956;SDS011;48483;44.640;7.494;2022-08-04T11:28:45;4.40;;;3.78;;
39956;SDS011;48483;44.640;7.494;2022-08-04T11:31:19;4.00;;;3.30;;
39956;SDS011;48483;44.640;7.494;2022-08-04T11:33:51;4.65;;;3.35;;
39956;SDS011;48483;44.640;7.494;2022-08-04T11:36:29;5.45;;;3.90;;
39956;SDS011;48483;44.640;7.494;2022-08-04T11:39:05;5.18;;;4.35;;
39956;SDS011;48483;44.640;7.494;2022-08-04T11:41:38;4.72;;;3.58;;
39956;SDS011;48483;44.640;7.494;2022-08-04T11:44:18;3.80;;;3.17;;
39956;SDS011;48483;44.640;7.494;2022-08-04T11:46:51;4.45;;;3.40;;
39956;SDS011;48483;44.640;7.494;2022-08-04T11:49:23;3.92;;;3.50;;
39956;SDS011;48483;44.640;7.494;2022-08-04T11:51:56;5.78;;;3.22;;
39956;SDS011;48483;44.640;7.494;2022-08-04T11:54:26;3.83;;;3.00;;
39956;SDS011;48483;44.640;7.494;2022-08-04T11:56:53;4.88;;;3.30;;
39956;SDS011;48483;44.640;7.494;2022-08-04T11:59:21;5.63;;;3.60;;
39956;SDS011;48483;44.640;7.494;2022-08-04T12:01:58;4.30;;;3.53;;
39956;SDS011;48483;44.640;7.494;2022-08-04T12:04:35;5.00;;;3.50;;
39956;SDS011;48483;44.640;7.494;2022-08-04T12:07:12;6.00;;;4.10;;
39956;SDS011;48483;44.640;7.494;2022-08-04T12:09:45;5.25;;;3.58;;
39956;SDS011;48483;44.640;7.494;2022-08-04T12:12:24;5.82;;;4.53;;
39956;SDS011;48483;44.640;7.494;2022-08-04T12:14:58;7.10;;;4.50;;
39956;SDS011;48483;44.640;7.494;2022-08-04T12:17:39;5.28;;;3.85;;
39956;SDS011;48483;44.640;7.494;2022-08-04T12:20:15;7.97;;;4.50;;
39956;SDS011;48483;44.640;7.494;2022-08-04T12:22:47;7.10;;;4.45;;
39956;SDS011;48483;44.640;7.494;2022-08-04T12:25:18;4.28;;;3.53;;
39956;SDS011;48483;44.640;7.494;2022-08-04T12:27:50;5.18;;;3.90;;
39956;SDS011;48483;44.640;7.494;2022-08-04T12:30:21;4.75;;;3.78;;
39956;SDS011;48483;44.640;7.494;2022-08-04T12:32:50;6.05;;;3.90;;
39956;SDS011;48483;44.640;7.494;2022-08-04T12:35:21;4.88;;;3.90;;
39956;SDS011;48483;44.640;7.494;2022-08-04T12:37:54;4.15;;;3.75;;
39956;SDS011;48483;44.640;7.494;2022-08-04T12:40:30;4.88;;;3.88;;
39956;SDS011;48483;44.640;7.494;2022-08-04T12:43:02;7.80;;;3.67;;
39956;SDS011;48483;44.640;7.494;2022-08-04T12:45:35;4.45;;;3.58;;
39956;SDS011;48483;44.640;7.494;2022-08-04T12:48:08;6.45;;;3.60;;
39956;SDS011;48483;44.640;7.494;2022-08-04T12:50:35;4.90;;;4.10;;
39956;SDS011;48483;44.640;7.494;2022-08-04T12:53:09;6.95;;;4.43;;
39956;SDS011;48483;44.640;7.494;2022-08-04T12:55:43;4.32;;;3.90;;
39956;SDS011;48483;44.640;7.494;2022-08-04T12:58:14;4.95;;;3.80;;
39956;SDS011;48483;44.640;7.494;2022-08-04T13:00:43;5.85;;;3.90;;
39956;SDS011;48483;44.640;7.494;2022-08-04T13:03:15;5.15;;;3.78;;
39956;SDS011;48483;44.640;7.494;2022-08-04T13:05:44;4.47;;;3.78;;
39956;SDS011;48483;44.640;7.494;2022-08-04T13:08:13;6.82;;;4.38;;
39956;SDS011;48483;44.640;7.494;2022-08-04T13:10:46;4.93;;;3.80;;
39956;SDS011;48483;44.640;7.494;2022-08-04T13:13:16;7.00;;;3.72;;
39956;SDS011;48483;44.640;7.494;2022-08-04T13:15:53;4.93;;;4.43;;
39956;SDS011;48483;44.640;7.494;2022-08-04T13:18:21;8.32;;;4.65;;
39956;SDS011;48483;44.640;7.494;2022-08-04T13:20:50;5.22;;;3.97;;
39956;SDS011;48483;44.640;7.494;2022-08-04T13:23:17;6.82;;;4.63;;
39956;SDS011;48483;44.640;7.494;2022-08-04T13:25:46;5.25;;;4.15;;
39956;SDS011;48483;44.640;7.494;2022-08-04T13:28:18;6.20;;;4.30;;
39956;SDS011;48483;44.640;7.494;2022-08-04T13:30:51;4.13;;;3.70;;
39956;SDS011;48483;44.640;7.494;2022-08-04T13:33:20;4.90;;;4.43;;
39956;SDS011;48483;44.640;7.494;2022-08-04T13:35:53;5.88;;;4.30;;
39956;SDS011;48483;44.640;7.494;2022-08-04T13:40:51;6.45;;;4.13;;
39956;SDS011;48483;44.640;7.494;2022-08-04T13:43:24;5.82;;;4.10;;
39956;SDS011;48483;44.640;7.494;2022-08-04T13:45:57;5.20;;;4.15;;
39956;SDS011;48483;44.640;7.494;2022-08-04T13:48:25;5.75;;;4.43;;
39956;SDS011;48483;44.640;7.494;2022-08-04T13:50:57;6.18;;;4.20;;
39956;SDS011;48483;44.640;7.494;2022-08-04T13:53:30;6.75;;;4.93;;
39956;SDS011;48483;44.640;7.494;2022-08-04T13:55:59;4.80;;;4.07;;
39956;SDS011;48483;44.640;7.494;2022-08-04T13:58:29;5.88;;;4.95;;
39956;SDS011;48483;44.640;7.494;2022-08-04T14:00:58;6.80;;;4.28;;
39956;SDS011;48483;44.640;7.494;2022-08-04T14:03:28;6.80;;;4.07;;
39956;SDS011;48483;44.640;7.494;2022-08-04T14:06:15;5.00;;;4.30;;
39956;SDS011;48483;44.640;7.494;2022-08-04T14:08:52;6.75;;;4.78;;
39956;SDS011;48483;44.640;7.494;2022-08-04T14:11:22;7.35;;;4.30;;
39956;SDS011;48483;44.640;7.494;2022-08-04T14:13:58;8.15;;;4.18;;
39956;SDS011;48483;44.640;7.494;2022-08-04T14:16:25;6.32;;;4.43;;
39956;SDS011;48483;44.640;7.494;2022-08-04T14:18:56;5.78;;;4.32;;
39956;SDS011;48483;44.640;7.494;2022-08-04T14:21:24;5.28;;;4.43;;
39956;SDS011;48483;44.640;7.494;2022-08-04T14:23:51;6.47;;;4.07;;
39956;SDS011;48483;44.640;7.494;2022-08-04T14:26:25;10.35;;;4.85;;
39956;SDS011;48483;44.640;7.494;2022-08-04T14:28:53;4.80;;;4.40;;
39956;SDS011;48483;44.640;7.494;2022-08-04T14:31:25;5.55;;;3.75;;
39956;SDS011;48483;44.640;7.494;2022-08-04T14:33:52;5.00;;;4.13;;
39956;SDS011;48483;44.640;7.494;2022-08-04T14:36:20;4.30;;;3.90;;
39956;SDS011;48483;44.640;7.494;2022-08-04T14:38:48;5.82;;;4.75;;
39956;SDS011;48483;44.640;7.494;2022-08-04T14:41:18;6.32;;;4.22;;
39956;SDS011;48483;44.640;7.494;2022-08-04T14:43:49;5.68;;;3.88;;
39956;SDS011;48483;44.640;7.494;2022-08-04T14:46:17;4.82;;;4.32;;
39956;SDS011;48483;44.640;7.494;2022-08-04T14:49:04;5.18;;;4.22;;
39956;SDS011;48483;44.640;7.494;2022-08-04T14:51:35;5.70;;;4.22;;
39956;SDS011;48483;44.640;7.494;2022-08-04T14:54:05;5.20;;;4.65;;
39956;SDS011;48483;44.640;7.494;2022-08-04T14:56:33;7.45;;;4.05;;
39956;SDS011;48483;44.640;7.494;2022-08-04T14:59:02;6.07;;;4.43;;
39956;SDS011;48483;44.640;7.494;2022-08-04T15:01:33;11.63;;;5.82;;
39956;SDS011;48483;44.640;7.494;2022-08-04T15:04:02;5.28;;;4.00;;
39956;SDS011;48483;44.640;7.494;2022-08-04T15:06:29;5.35;;;4.85;;
39956;SDS011;48483;44.640;7.494;2022-08-04T15:08:59;5.55;;;4.28;;
39956;SDS011;48483;44.640;7.494;2022-08-04T15:11:27;7.45;;;5.60;;
39956;SDS011;48483;44.640;7.494;2022-08-04T15:13:56;5.18;;;4.68;;
39956;SDS011;48483;44.640;7.494;2022-08-04T15:16:25;6.57;;;4.63;;
39956;SDS011;48483;44.640;7.494;2022-08-04T15:21:20;5.35;;;4.85;;
39956;SDS011;48483;44.640;7.494;2022-08-04T15:23:48;6.40;;;5.80;;
39956;SDS011;48483;44.640;7.494;2022-08-04T15:26:16;10.68;;;9.60;;
39956;SDS011;48483;44.640;7.494;2022-08-04T15:28:50;14.10;;;12.68;;
39956;SDS011;48483;44.640;7.494;2022-08-04T15:31:20;16.63;;;14.88;;
39956;SDS011;48483;44.640;7.494;2022-08-04T15:33:50;24.70;;;22.08;;
39956;SDS011;48483;44.640;7.494;2022-08-04T15:36:21;23.70;;;20.95;;
39956;SDS011;48483;44.640;7.494;2022-08-04T15:38:55;26.85;;;24.23;;
39956;SDS011;48483;44.640;7.494;2022-08-04T15:41:32;21.13;;;18.88;;
39956;SDS011;48483;44.640;7.494;2022-08-04T15:44:27;20.23;;;18.13;;
39956;SDS011;48483;44.640;7.494;2022-08-04T15:47:24;22.38;;;19.92;;
39956;SDS011;48483;44.640;7.494;2022-08-04T15:50:02;21.50;;;19.23;;
39956;SDS011;48483;44.640;7.494;2022-08-04T15:55:32;23.52;;;19.27;;
39956;SDS011;48483;44.640;7.494;2022-08-04T15:58:01;14.32;;;12.82;;
39956;SDS011;48483;44.640;7.494;2022-08-04T16:00:32;16.10;;;13.27;;
39956;SDS011;48483;44.640;7.494;2022-08-04T16:03:40;14.07;;;11.40;;
39956;SDS011;48483;44.640;7.494;2022-08-04T16:09:09;10.30;;;7.53;;
39956;SDS011;48483;44.640;7.494;2022-08-04T16:11:50;11.90;;;9.27;;
39956;SDS011;48483;44.640;7.494;2022-08-04T16:14:21;10.40;;;8.88;;
39956;SDS011;48483;44.640;7.494;2022-08-04T16:16:56;11.13;;;9.13;;
39956;SDS011;48483;44.640;7.494;2022-08-04T16:19:49;12.85;;;11.48;;
39956;SDS011;48483;44.640;7.494;2022-08-04T16:22:31;8.32;;;6.85;;
39956;SDS011;48483;44.640;7.494;2022-08-04T16:25:00;10.63;;;5.95;;
39956;SDS011;48483;44.640;7.494;2022-08-04T16:27:34;7.55;;;5.45;;
39956;SDS011;48483;44.640;7.494;2022-08-04T16:30:06;11.77;;;9.88;;